NORTHEAST SUFFOLK  -  Special Weather Statement Special Weather Statement        NORTHERN NASSAU  -  Special Weather Statement Special Weather Statement        NORTHWEST SUFFOLK  -  Special Weather Statement Special Weather Statement        SOUTHEAST SUFFOLK  -  Special Weather Statement Special Weather Statement        SOUTHERN NASSAU  -  Special Weather Statement Special Weather Statement        SOUTHWEST SUFFOLK  -  Special Weather Statement Special Weather Statement      

Active alerts

Northern Nassau
  Details for Northern Nassau Special Weather Statement
Southern Nassau
  Details for Southern Nassau Special Weather Statement
Northwest Suffolk
  Details for Northwest Suffolk Special Weather Statement
Southwest Suffolk
  Details for Southwest Suffolk Special Weather Statement
Northeast Suffolk
  Details for Northeast Suffolk Special Weather Statement
Southeast Suffolk
  Details for Southeast Suffolk Special Weather Statement


WXM80 ListenWXM80 Stop

You find our weather info also at:

UK Metoffice

WeatherCloud

Weather Underground

Northeastern Weather Network

AWEKAS

Citizen Weather Observer Program (CWOP)

HAMweather, WeatherForYou, PWS Weather


Weather Underground History page Text

Daily Summary for December 1, 2016 Units:  English    Metric   Both
« Previous Day
Next Day »
Daily Weekly Monthly Yearly Custom
  High: Low: Average:
Temperature: 59.6 °F 44.0 °F 51.6 °F
Dew Point: 59.3 °F 32.7 °F 44.1 °F
Humidity: 99 % 59 % 77 %
Wind Speed: 10.4 mph 0.0 mph 5.6 mph
Wind Gust: 21.9 mph - -
Wind:- - WSW
Pressure: 29.78 in 29.40 in -
Precipitation: 0.00 in    
Historical Graphs
 
 
Tabular Data for December 1, 2016
Time Temperature Dew Point Pressure Wind Wind Speed Wind Gust Humidity Rainfall Rate (Hourly)
00:03 51.8 °F 51.3 °F 29.53 in East 1.8 mph 3.0 mph 98 % 0.01 in
00:09 51.8 °F 51.3 °F 29.52 in East 0.3 mph 1.2 mph 98 % 0.01 in
00:14 51.9 °F 51.6 °F 29.52 in East 1.5 mph 2.3 mph 99 % 0.01 in
00:19 51.9 °F 51.6 °F 29.51 in NE 3.5 mph 5.0 mph 99 % 0.01 in
00:24 52.0 °F 51.7 °F 29.51 in NE 0.7 mph 2.3 mph 99 % 0.01 in
00:29 52.0 °F 51.7 °F 29.50 in Calm     99 % 0.01 in
00:34 52.1 °F 51.8 °F 29.49 in NE 0.5 mph 2.3 mph 99 % 0.01 in
00:39 52.1 °F 51.8 °F 29.49 in NE 0.4 mph 1.2 mph 99 % 0.01 in
00:44 52.1 °F 51.8 °F 29.49 in Calm     99 % 0.01 in
00:49 52.2 °F 51.9 °F 29.49 in Calm     99 % 0.01 in
00:54 52.2 °F 51.9 °F 29.48 in Calm     99 % 0.01 in
00:59 52.2 °F 51.9 °F 29.48 in Calm     99 % 0.01 in
01:04 52.3 °F 52.0 °F 29.48 in NE 0.3 mph 1.2 mph 99 % 0.01 in
01:10 52.4 °F 52.1 °F 29.46 in SW 0.6 mph 3.5 mph 99 % 0.02 in
01:15 52.6 °F 52.3 °F 29.45 in Calm   3.5 mph 99 % 0.03 in
01:20 52.8 °F 52.5 °F 29.45 in Calm   2.0 mph 99 % 0.00 in
01:25 53.3 °F 53.0 °F 29.44 in SSW 3.0 mph 6.0 mph 99 % 0.00 in
01:30 54.3 °F 54.0 °F 29.44 in SSW 1.0 mph 3.0 mph 99 % 0.00 in
01:35 55.2 °F 55.0 °F 29.44 in SSW 3.0 mph 7.0 mph 99 % 0.00 in
01:40 56.6 °F 56.3 °F 29.44 in SW 2.7 mph 8.1 mph 99 % 0.04 in
01:45 57.4 °F 57.1 °F 29.44 in SSW 5.0 mph 12.0 mph 99 % 0.00 in
01:50 58.0 °F 57.7 °F 29.44 in South 9.0 mph 16.0 mph 99 % 0.00 in
01:55 58.5 °F 58.2 °F 29.44 in South 8.0 mph 16.0 mph 99 % 0.00 in
02:00 58.8 °F 58.5 °F 29.45 in South 6.9 mph 9.2 mph 99 % 0.03 in
02:05 58.9 °F 58.6 °F 29.44 in SW 5.2 mph 12.0 mph 99 % 0.03 in
02:10 59.0 °F 58.7 °F 29.43 in South 4.4 mph 10.4 mph 99 % 0.02 in
02:15 59.0 °F 58.7 °F 29.42 in SSW 7.5 mph 12.0 mph 99 % 0.01 in
02:20 59.0 °F 58.7 °F 29.43 in SSW 5.4 mph 12.7 mph 99 % 0.00 in
02:25 59.1 °F 58.8 °F 29.42 in South 4.3 mph 14.0 mph 99 % 0.00 in
02:30 59.2 °F 58.9 °F 29.41 in SSW 3.8 mph 6.9 mph 99 % 0.00 in
02:36 59.2 °F 58.9 °F 29.41 in SSW 8.5 mph 14.0 mph 99 % 0.00 in
02:41 59.4 °F 59.1 °F 29.40 in WSW 4.6 mph 11.0 mph 99 % 0.00 in
02:46 59.4 °F 59.1 °F 29.41 in SW 8.5 mph 13.0 mph 99 % 0.00 in
02:51 59.5 °F 59.2 °F 29.40 in South 4.7 mph 6.9 mph 99 % 0.00 in
02:56 59.6 °F 59.3 °F 29.40 in SSW 3.3 mph 8.1 mph 99 % 0.00 in
03:01 59.6 °F 59.3 °F 29.41 in South 3.5 mph 6.9 mph 99 % 0.00 in
03:06 59.5 °F 59.2 °F 29.41 in SW 5.9 mph 10.4 mph 99 % 0.00 in
03:12 59.4 °F 59.1 °F 29.41 in South 7.9 mph 11.5 mph 99 % 0.00 in
03:17 59.3 °F 59.0 °F 29.41 in SW 6.3 mph 6.9 mph 99 % 0.00 in
03:22 59.3 °F 59.0 °F 29.41 in SSW 4.7 mph 10.4 mph 99 % 0.00 in
03:27 59.1 °F 58.8 °F 29.42 in SW 7.1 mph 11.5 mph 99 % 0.00 in
03:33 58.9 °F 58.6 °F 29.42 in SW 6.9 mph 12.0 mph 99 % 0.00 in
03:38 58.8 °F 58.5 °F 29.42 in SSW 0.9 mph 6.0 mph 99 % 0.00 in
03:43 58.7 °F 58.4 °F 29.42 in SW 2.8 mph 6.9 mph 99 % 0.00 in
03:48 58.7 °F 58.4 °F 29.42 in SW 7.5 mph 12.7 mph 99 % 0.00 in
03:53 58.7 °F 58.4 °F 29.42 in SW 5.9 mph 10.4 mph 99 % 0.00 in
03:58 58.7 °F 58.4 °F 29.42 in SW 5.5 mph 9.0 mph 99 % 0.00 in
04:03 58.7 °F 58.4 °F 29.42 in SW 6.7 mph 9.2 mph 99 % 0.00 in
04:08 58.7 °F 58.4 °F 29.42 in SSW 5.5 mph 11.5 mph 99 % 0.00 in
04:13 58.7 °F 58.4 °F 29.42 in SW 7.6 mph 13.0 mph 99 % 0.00 in
04:18 58.6 °F 58.3 °F 29.42 in South 7.9 mph 16.1 mph 99 % 0.00 in
04:24 58.4 °F 58.1 °F 29.43 in West 10.1 mph 19.6 mph 99 % 0.00 in
04:29 58.0 °F 57.7 °F 29.43 in SW 10.2 mph 18.4 mph 99 % 0.00 in
04:34 57.6 °F 57.3 °F 29.44 in West 8.6 mph 19.6 mph 99 % 0.00 in
04:39 57.2 °F 56.6 °F 29.45 in WSW 6.6 mph 12.7 mph 98 % 0.00 in
04:44 56.7 °F 56.4 °F 29.47 in WNW 6.6 mph 9.2 mph 99 % 0.00 in
04:49 56.2 °F 55.6 °F 29.48 in WNW 8.6 mph 16.1 mph 98 % 0.00 in
04:54 55.7 °F 55.1 °F 29.49 in WNW 9.8 mph 15.0 mph 98 % 0.00 in
04:59 55.0 °F 54.4 °F 29.50 in WSW 5.7 mph 11.5 mph 98 % 0.00 in
05:04 54.6 °F 54.0 °F 29.49 in WSW 6.6 mph 11.5 mph 98 % 0.00 in
05:09 54.1 °F 53.5 °F 29.49 in West 1.6 mph 4.6 mph 98 % 0.00 in
05:20 53.6 °F 53.0 °F 29.48 in WNW 1.6 mph 3.5 mph 98 % 0.00 in
05:25 53.3 °F 52.8 °F 29.48 in West 1.0 mph 4.0 mph 98 % 0.00 in
05:31 53.0 °F 52.2 °F 29.49 in WSW 1.2 mph 3.5 mph 97 % 0.00 in
05:42 52.6 °F 51.8 °F 29.49 in WSW 1.3 mph 4.0 mph 97 % 0.00 in
05:47 52.4 °F 51.6 °F 29.50 in WNW 2.3 mph 6.0 mph 97 % 0.00 in
05:52 52.1 °F 51.3 °F 29.49 in WNW 3.2 mph 6.9 mph 97 % 0.00 in
05:57 51.9 °F 51.1 °F 29.50 in West 2.7 mph 4.6 mph 97 % 0.00 in
06:02 51.7 °F 50.9 °F 29.50 in West 2.5 mph 3.5 mph 97 % 0.00 in
06:07 51.5 °F 50.7 °F 29.52 in SW 3.5 mph 6.9 mph 97 % 0.00 in
06:12 51.4 °F 50.6 °F 29.52 in WSW 1.9 mph 3.5 mph 97 % 0.00 in
06:17 51.2 °F 50.4 °F 29.52 in West 3.6 mph 5.0 mph 97 % 0.00 in
06:22 51.0 °F 49.9 °F 29.52 in WSW 2.9 mph 5.8 mph 96 % 0.00 in
06:28 50.8 °F 49.7 °F 29.53 in West 3.1 mph 4.0 mph 96 % 0.00 in
06:33 50.7 °F 49.6 °F 29.53 in SW 5.6 mph 8.0 mph 96 % 0.00 in
06:38 50.5 °F 49.4 °F 29.53 in WNW 3.6 mph 6.9 mph 96 % 0.00 in
06:43 50.4 °F 49.3 °F 29.53 in WSW 5.0 mph 12.7 mph 96 % 0.00 in
06:48 50.3 °F 49.2 °F 29.53 in WSW 6.3 mph 10.4 mph 96 % 0.00 in
06:53 50.2 °F 49.1 °F 29.53 in West 3.3 mph 5.8 mph 96 % 0.00 in
06:58 50.1 °F 48.7 °F 29.54 in West 3.3 mph 11.5 mph 95 % 0.00 in
07:03 50.0 °F 48.6 °F 29.54 in SW 3.6 mph 5.8 mph 95 % 0.00 in
07:08 49.9 °F 48.5 °F 29.54 in SW 3.3 mph 8.0 mph 95 % 0.00 in
07:14 49.9 °F 48.5 °F 29.55 in SW 3.2 mph 4.6 mph 95 % 0.00 in
07:19 49.9 °F 48.5 °F 29.55 in WSW 6.3 mph 11.5 mph 95 % 0.00 in
07:24 49.9 °F 48.5 °F 29.55 in SW 6.2 mph 8.1 mph 95 % 0.00 in
07:29 49.9 °F 48.5 °F 29.55 in WNW 2.9 mph 7.0 mph 95 % 0.00 in
07:34 50.0 °F 48.6 °F 29.55 in WSW 5.0 mph 10.4 mph 95 % 0.00 in
07:39 50.0 °F 48.6 °F 29.55 in WSW 3.6 mph 6.0 mph 95 % 0.00 in
07:44 50.1 °F 48.7 °F 29.56 in WNW 3.4 mph 6.9 mph 95 % 0.00 in
07:49 50.2 °F 48.5 °F 29.56 in WNW 5.5 mph 8.1 mph 94 % 0.00 in
07:54 50.3 °F 48.6 °F 29.56 in WSW 6.5 mph 8.1 mph 94 % 0.00 in
07:59 50.4 °F 48.7 °F 29.56 in SW 3.5 mph 6.9 mph 94 % 0.00 in
08:05 50.5 °F 48.8 °F 29.57 in West 5.2 mph 9.2 mph 94 % 0.00 in
08:10 50.6 °F 48.9 °F 29.56 in WSW 3.1 mph 8.1 mph 94 % 0.00 in
08:15 50.7 °F 49.0 °F 29.57 in WSW 3.0 mph 9.0 mph 94 % 0.00 in
08:20 50.9 °F 48.9 °F 29.57 in WSW 2.0 mph 9.0 mph 93 % 0.00 in
08:25 51.0 °F 48.8 °F 29.57 in WSW 3.0 mph 9.0 mph 92 % 0.00 in
08:30 51.1 °F 48.6 °F 29.57 in WSW 6.0 mph 10.0 mph 91 % 0.00 in
08:35 51.3 °F 48.8 °F 29.57 in SW 2.0 mph 10.0 mph 91 % 0.00 in
08:40 51.5 °F 49.0 °F 29.57 in West 5.0 mph 15.0 mph 91 % 0.00 in
08:45 51.7 °F 48.9 °F 29.58 in West 4.9 mph 8.0 mph 90 % 0.00 in
08:50 51.8 °F 49.0 °F 29.58 in WSW 5.0 mph 12.0 mph 90 % 0.00 in
08:55 52.0 °F 49.2 °F 29.58 in WSW 6.0 mph 12.0 mph 90 % 0.00 in
09:00 52.2 °F 48.8 °F 29.58 in West 4.6 mph 13.8 mph 88 % 0.00 in
09:05 52.3 °F 48.2 °F 29.58 in West 7.0 mph 16.0 mph 86 % 0.00 in
09:10 52.5 °F 47.8 °F 29.58 in West 7.0 mph 16.0 mph 84 % 0.00 in
09:15 52.8 °F 48.1 °F 29.58 in West 6.0 mph 15.0 mph 84 % 0.00 in
09:20 53.0 °F 48.3 °F 29.59 in West 6.0 mph 14.0 mph 84 % 0.00 in
09:25 53.1 °F 47.7 °F 29.59 in West 8.0 mph 14.0 mph 82 % 0.00 in
09:30 53.3 °F 47.6 °F 29.59 in West 6.0 mph 12.0 mph 81 % 0.00 in
09:35 53.3 °F 47.3 °F 29.59 in West 7.0 mph 14.0 mph 80 % 0.00 in
09:40 53.5 °F 46.8 °F 29.59 in West 8.0 mph 13.0 mph 78 % 0.00 in
09:45 53.6 °F 46.9 °F 29.60 in West 6.0 mph 18.0 mph 78 % 0.00 in
09:50 53.7 °F 46.7 °F 29.59 in West 8.0 mph 16.0 mph 77 % 0.00 in
09:55 53.8 °F 46.8 °F 29.60 in West 5.0 mph 12.0 mph 77 % 0.00 in
10:00 54.0 °F 46.3 °F 29.60 in WSW 9.3 mph 16.1 mph 75 % 0.00 in
10:05 54.1 °F 46.0 °F 29.60 in West 7.0 mph 16.0 mph 74 % 0.00 in
10:10 54.1 °F 45.6 °F 29.60 in West 8.0 mph 18.0 mph 73 % 0.00 in
10:15 54.2 °F 45.4 °F 29.60 in West 5.9 mph 11.5 mph 72 % 0.00 in
10:20 54.3 °F 45.1 °F 29.60 in NW 9.2 mph 16.1 mph 71 % 0.00 in
10:25 54.4 °F 45.2 °F 29.60 in NW 4.8 mph 13.8 mph 71 % 0.00 in
10:30 54.4 °F 45.6 °F 29.60 in West 3.8 mph 9.2 mph 72 % 0.00 in
10:35 54.5 °F 45.7 °F 29.60 in NW 4.1 mph 11.5 mph 72 % 0.00 in
10:40 54.6 °F 45.8 °F 29.59 in West 6.1 mph 9.2 mph 72 % 0.00 in
10:45 54.6 °F 45.4 °F 29.60 in West 6.2 mph 9.2 mph 71 % 0.00 in
10:50 54.5 °F 44.5 °F 29.59 in WSW 6.5 mph 11.5 mph 69 % 0.00 in
10:56 54.2 °F 45.0 °F 29.59 in West 3.8 mph 12.0 mph 71 % 0.00 in
11:01 54.2 °F 45.4 °F 29.59 in SW 6.5 mph 8.1 mph 72 % 0.00 in
11:06 54.1 °F 44.9 °F 29.59 in WNW 6.8 mph 11.5 mph 71 % 0.00 in
11:11 54.1 °F 45.3 °F 29.59 in West 4.4 mph 11.5 mph 72 % 0.00 in
11:16 54.3 °F 45.8 °F 29.59 in WSW 7.2 mph 11.5 mph 73 % 0.00 in
11:21 54.4 °F 44.8 °F 29.58 in WSW 6.0 mph 11.5 mph 70 % 0.00 in
11:26 54.5 °F 44.9 °F 29.58 in WSW 5.5 mph 11.5 mph 70 % 0.00 in
11:31 54.6 °F 44.6 °F 29.58 in WNW 6.8 mph 11.5 mph 69 % 0.00 in
11:36 54.6 °F 44.6 °F 29.58 in West 7.9 mph 11.5 mph 69 % 0.00 in
11:41 54.6 °F 45.4 °F 29.58 in WSW 5.8 mph 13.0 mph 71 % 0.00 in
11:46 54.5 °F 44.9 °F 29.58 in WNW 3.8 mph 8.1 mph 70 % 0.00 in
11:51 54.4 °F 44.8 °F 29.58 in West 2.1 mph 8.1 mph 70 % 0.00 in
11:57 54.1 °F 44.2 °F 29.58 in SW 6.3 mph 11.5 mph 69 % 0.00 in
12:02 54.0 °F 43.7 °F 29.58 in West 5.0 mph 9.2 mph 68 % 0.00 in
12:07 53.9 °F 44.0 °F 29.58 in SW 2.1 mph 4.0 mph 69 % 0.00 in
12:12 53.9 °F 44.3 °F 29.58 in WSW 3.9 mph 9.2 mph 70 % 0.00 in
12:17 53.9 °F 43.6 °F 29.58 in West 7.3 mph 11.5 mph 68 % 0.00 in
12:22 53.9 °F 44.0 °F 29.58 in West 7.2 mph 11.5 mph 69 % 0.00 in
12:32 54.2 °F 43.5 °F 29.58 in West 7.3 mph 13.8 mph 67 % 0.00 in
12:37 54.3 °F 43.6 °F 29.58 in WNW 4.4 mph 9.2 mph 67 % 0.00 in
12:42 54.6 °F 43.5 °F 29.58 in WNW 7.1 mph 11.5 mph 66 % 0.00 in
12:48 54.8 °F 43.3 °F 29.58 in WSW 4.0 mph 10.4 mph 65 % 0.00 in
12:53 54.9 °F 42.9 °F 29.58 in WNW 6.9 mph 13.8 mph 64 % 0.00 in
12:58 55.0 °F 43.0 °F 29.58 in WNW 8.6 mph 13.8 mph 64 % 0.00 in
13:08 55.1 °F 43.1 °F 29.59 in WNW 8.1 mph 11.5 mph 64 % 0.00 in
13:13 55.1 °F 43.1 °F 29.59 in West 5.5 mph 9.2 mph 64 % 0.00 in
13:18 55.1 °F 43.1 °F 29.59 in WSW 5.0 mph 11.0 mph 64 % 0.00 in
13:23 55.0 °F 42.6 °F 29.59 in NW 8.2 mph 11.5 mph 63 % 0.00 in
13:28 54.8 °F 42.9 °F 29.59 in WSW 3.5 mph 9.0 mph 64 % 0.00 in
13:33 54.6 °F 42.7 °F 29.59 in West 4.0 mph 9.2 mph 64 % 0.00 in
13:39 54.4 °F 42.5 °F 29.59 in WNW 8.7 mph 12.0 mph 64 % 0.00 in
13:44 54.3 °F 42.4 °F 29.59 in NW 9.6 mph 12.0 mph 64 % 0.00 in
13:49 54.1 °F 42.2 °F 29.59 in West 3.6 mph 6.9 mph 64 % 0.00 in
13:54 54.0 °F 42.5 °F 29.59 in West 4.7 mph 10.4 mph 65 % 0.00 in
13:59 53.9 °F 42.4 °F 29.59 in SSW 3.9 mph 11.5 mph 65 % 0.00 in
14:04 53.7 °F 42.2 °F 29.59 in NW 6.0 mph 11.5 mph 65 % 0.00 in
14:09 53.5 °F 41.6 °F 29.60 in West 7.8 mph 15.0 mph 64 % 0.00 in
14:14 53.3 °F 41.4 °F 29.60 in West 6.7 mph 11.5 mph 64 % 0.00 in
14:19 53.1 °F 40.8 °F 29.60 in West 7.3 mph 11.5 mph 63 % 0.00 in
14:24 52.9 °F 40.6 °F 29.60 in NW 6.4 mph 17.3 mph 63 % 0.00 in
14:29 52.8 °F 41.0 °F 29.61 in SSW 5.1 mph 9.2 mph 64 % 0.00 in
14:35 52.6 °F 40.4 °F 29.62 in WNW 9.0 mph 15.0 mph 63 % 0.00 in
14:40 52.3 °F 40.1 °F 29.62 in NW 6.0 mph 8.1 mph 63 % 0.00 in
14:45 52.1 °F 39.4 °F 29.62 in West 8.0 mph 21.0 mph 62 % 0.00 in
14:50 51.8 °F 39.2 °F 29.63 in West 6.0 mph 12.0 mph 62 % 0.00 in
14:55 51.5 °F 38.5 °F 29.63 in West 9.0 mph 16.0 mph 61 % 0.00 in
15:00 51.4 °F 38.8 °F 29.63 in West 6.3 mph 13.8 mph 62 % 0.00 in
15:05 51.3 °F 39.1 °F 29.64 in West 4.6 mph 11.5 mph 63 % 0.00 in
15:10 51.2 °F 39.0 °F 29.64 in SW 7.1 mph 12.7 mph 63 % 0.00 in
15:15 51.0 °F 39.2 °F 29.64 in WSW 4.3 mph 9.0 mph 64 % 0.00 in
15:20 50.9 °F 38.7 °F 29.64 in WSW 7.7 mph 16.1 mph 63 % 0.00 in
15:25 50.7 °F 38.1 °F 29.64 in WNW 8.2 mph 10.4 mph 62 % 0.00 in
15:30 50.5 °F 37.5 °F 29.64 in SW 6.5 mph 16.1 mph 61 % 0.00 in
15:35 50.4 °F 37.9 °F 29.64 in West 6.6 mph 10.0 mph 62 % 0.00 in
15:41 50.3 °F 37.8 °F 29.65 in West 5.9 mph 10.4 mph 62 % 0.00 in
15:46 50.2 °F 37.3 °F 29.65 in West 10.4 mph 11.5 mph 61 % 0.00 in
15:51 50.1 °F 36.7 °F 29.65 in NW 7.5 mph 18.4 mph 60 % 0.00 in
15:56 50.1 °F 37.2 °F 29.65 in NW 9.6 mph 16.1 mph 61 % 0.00 in
16:01 50.0 °F 37.1 °F 29.66 in West 8.6 mph 17.3 mph 61 % 0.00 in
16:06 49.9 °F 37.0 °F 29.65 in West 6.6 mph 11.5 mph 61 % 0.00 in
16:11 49.8 °F 37.3 °F 29.66 in South 3.6 mph 6.9 mph 62 % 0.00 in
16:16 49.7 °F 37.2 °F 29.66 in WSW 7.7 mph 15.0 mph 62 % 0.00 in
16:21 49.6 °F 36.3 °F 29.66 in West 9.3 mph 21.9 mph 60 % 0.00 in
16:26 49.5 °F 36.6 °F 29.66 in WSW 7.6 mph 16.1 mph 61 % 0.00 in
16:32 49.4 °F 36.5 °F 29.66 in NW 9.3 mph 17.3 mph 61 % 0.00 in
16:37 49.4 °F 36.1 °F 29.67 in West 8.8 mph 15.0 mph 60 % 0.00 in
16:42 49.3 °F 36.4 °F 29.67 in WSW 7.0 mph 11.5 mph 61 % 0.00 in
16:47 49.3 °F 36.0 °F 29.67 in SW 9.0 mph 15.0 mph 60 % 0.00 in
16:52 49.3 °F 36.4 °F 29.67 in WSW 6.4 mph 12.7 mph 61 % 0.00 in
16:57 49.2 °F 36.3 °F 29.67 in WSW 8.0 mph 14.0 mph 61 % 0.00 in
17:02 49.2 °F 36.3 °F 29.68 in West 8.2 mph 18.4 mph 61 % 0.00 in
17:07 49.2 °F 36.3 °F 29.68 in West 9.8 mph 17.3 mph 61 % 0.00 in
17:12 49.2 °F 36.3 °F 29.68 in West 4.7 mph 10.4 mph 61 % 0.00 in
17:17 49.1 °F 36.2 °F 29.68 in SW 7.1 mph 15.0 mph 61 % 0.00 in
17:23 49.0 °F 36.5 °F 29.69 in SW 2.7 mph 6.9 mph 62 % 0.00 in
17:28 49.0 °F 36.5 °F 29.69 in SW 4.0 mph 9.2 mph 62 % 0.00 in
17:33 49.0 °F 36.5 °F 29.69 in NW 8.2 mph 13.8 mph 62 % 0.00 in
17:38 49.0 °F 36.9 °F 29.69 in SW 4.4 mph 11.5 mph 63 % 0.00 in
17:43 48.9 °F 36.4 °F 29.69 in West 5.0 mph 11.5 mph 62 % 0.00 in
17:48 48.9 °F 36.4 °F 29.69 in WSW 3.1 mph 5.0 mph 62 % 0.00 in
17:53 48.8 °F 36.4 °F 29.70 in WSW 7.3 mph 11.5 mph 62 % 0.00 in
17:58 48.7 °F 35.8 °F 29.70 in WNW 6.0 mph 12.0 mph 61 % 0.00 in
18:03 48.5 °F 35.2 °F 29.70 in NW 9.9 mph 15.0 mph 60 % 0.00 in
18:08 48.5 °F 35.2 °F 29.70 in WNW 8.5 mph 12.7 mph 60 % 0.00 in
18:14 48.5 °F 35.2 °F 29.70 in NW 4.9 mph 13.8 mph 60 % 0.00 in
18:19 48.5 °F 34.8 °F 29.71 in WSW 7.0 mph 11.5 mph 59 % 0.00 in
18:24 48.6 °F 35.3 °F 29.71 in NNW 6.8 mph 12.7 mph 60 % 0.00 in
18:29 48.6 °F 35.3 °F 29.71 in West 9.0 mph 17.3 mph 60 % 0.00 in
18:34 48.6 °F 35.3 °F 29.72 in WSW 3.9 mph 11.5 mph 60 % 0.00 in
18:39 48.7 °F 35.8 °F 29.72 in West 6.4 mph 10.4 mph 61 % 0.00 in
18:44 48.7 °F 35.0 °F 29.72 in WSW 10.0 mph 13.8 mph 59 % 0.00 in
18:49 48.7 °F 35.0 °F 29.72 in NW 8.9 mph 11.5 mph 59 % 0.00 in
18:54 48.7 °F 35.0 °F 29.72 in WNW 8.8 mph 13.8 mph 59 % 0.00 in
18:59 48.7 °F 35.4 °F 29.72 in WNW 7.1 mph 11.5 mph 60 % 0.00 in
19:05 48.7 °F 35.0 °F 29.73 in West 8.0 mph 11.5 mph 59 % 0.00 in
19:10 48.6 °F 35.3 °F 29.73 in WNW 5.1 mph 15.0 mph 60 % 0.00 in
19:15 48.6 °F 36.2 °F 29.73 in West 5.0 mph 12.0 mph 62 % 0.00 in
19:20 48.5 °F 35.7 °F 29.73 in West 7.0 mph 16.0 mph 61 % 0.00 in
19:25 48.5 °F 34.8 °F 29.73 in WNW 7.8 mph 20.7 mph 59 % 0.00 in
19:30 48.4 °F 34.7 °F 29.73 in WNW 7.0 mph 15.0 mph 59 % 0.00 in
19:35 48.3 °F 35.5 °F 29.74 in West 8.0 mph 16.0 mph 61 % 0.00 in
19:40 48.2 °F 35.4 °F 29.74 in SW 6.8 mph 6.9 mph 61 % 0.00 in
19:45 48.2 °F 34.9 °F 29.74 in West 8.0 mph 15.0 mph 60 % 0.00 in
19:50 48.1 °F 35.3 °F 29.74 in West 3.0 mph 12.0 mph 61 % 0.00 in
19:55 47.9 °F 35.1 °F 29.74 in West 7.0 mph 13.0 mph 61 % 0.00 in
20:00 47.8 °F 35.0 °F 29.74 in NW 7.8 mph 16.1 mph 61 % 0.00 in
20:05 47.6 °F 35.2 °F 29.74 in NNW 5.0 mph 11.5 mph 62 % 0.00 in
20:10 47.4 °F 35.0 °F 29.74 in West 6.8 mph 11.5 mph 62 % 0.00 in
20:15 47.3 °F 34.9 °F 29.74 in SW 5.9 mph 11.5 mph 62 % 0.00 in
20:20 47.2 °F 34.8 °F 29.74 in West 5.3 mph 8.1 mph 62 % 0.00 in
20:25 47.1 °F 35.1 °F 29.74 in West 5.7 mph 11.5 mph 63 % 0.00 in
20:30 46.9 °F 34.6 °F 29.74 in WSW 4.5 mph 8.1 mph 62 % 0.00 in
20:35 46.9 °F 35.0 °F 29.74 in WSW 4.5 mph 6.9 mph 63 % 0.00 in
20:40 46.7 °F 35.2 °F 29.74 in NW 5.8 mph 8.0 mph 64 % 0.00 in
20:46 46.6 °F 34.7 °F 29.74 in West 7.8 mph 8.1 mph 63 % 0.00 in
20:51 46.5 °F 34.6 °F 29.75 in WNW 6.0 mph 10.4 mph 63 % 0.00 in
20:56 46.5 °F 34.6 °F 29.75 in SW 6.0 mph 16.1 mph 63 % 0.00 in
21:01 46.4 °F 33.7 °F 29.75 in WNW 3.4 mph 10.4 mph 61 % 0.00 in
21:06 46.3 °F 33.6 °F 29.75 in West 10.0 mph 15.0 mph 61 % 0.00 in
21:11 46.3 °F 33.6 °F 29.75 in NW 9.0 mph 16.1 mph 61 % 0.00 in
21:16 46.2 °F 33.1 °F 29.75 in NW 4.4 mph 6.9 mph 60 % 0.00 in
21:21 46.1 °F 33.4 °F 29.75 in WSW 9.0 mph 13.8 mph 61 % 0.00 in
21:26 46.1 °F 33.8 °F 29.75 in WNW 5.5 mph 11.0 mph 62 % 0.00 in
21:31 46.0 °F 34.1 °F 29.75 in West 5.3 mph 10.4 mph 63 % 0.00 in
21:37 45.9 °F 33.6 °F 29.75 in WNW 5.7 mph 9.2 mph 62 % 0.00 in
21:42 45.8 °F 33.5 °F 29.75 in WNW 7.0 mph 11.5 mph 62 % 0.00 in
21:47 45.7 °F 33.4 °F 29.76 in WSW 6.1 mph 12.7 mph 62 % 0.00 in
21:52 45.6 °F 33.3 °F 29.76 in West 7.8 mph 13.8 mph 62 % 0.00 in
21:57 45.5 °F 33.6 °F 29.76 in WSW 8.1 mph 12.7 mph 63 % 0.00 in
22:02 45.4 °F 33.5 °F 29.77 in WSW 6.6 mph 10.4 mph 63 % 0.00 in
22:07 45.3 °F 33.8 °F 29.77 in NW 5.2 mph 13.8 mph 64 % 0.00 in
22:12 45.2 °F 32.9 °F 29.77 in West 6.6 mph 12.7 mph 62 % 0.00 in
22:17 45.1 °F 33.2 °F 29.77 in WSW 9.0 mph 16.1 mph 63 % 0.00 in
22:22 45.1 °F 33.2 °F 29.77 in WNW 8.0 mph 15.0 mph 63 % 0.00 in
22:27 45.0 °F 33.2 °F 29.77 in West 2.8 mph 10.4 mph 63 % 0.00 in
22:33 44.9 °F 33.1 °F 29.78 in West 6.3 mph 10.4 mph 63 % 0.00 in
22:38 44.9 °F 32.7 °F 29.78 in WSW 5.3 mph 13.8 mph 62 % 0.00 in
22:43 44.8 °F 33.0 °F 29.77 in West 6.6 mph 12.7 mph 63 % 0.00 in
22:48 44.7 °F 32.9 °F 29.77 in West 6.7 mph 11.5 mph 63 % 0.00 in
22:53 44.6 °F 33.2 °F 29.78 in West 5.8 mph 11.5 mph 64 % 0.00 in
22:58 44.5 °F 33.1 °F 29.78 in NW 5.2 mph 7.0 mph 64 % 0.00 in
23:03 44.5 °F 33.1 °F 29.78 in West 5.1 mph 11.5 mph 64 % 0.00 in
23:08 44.4 °F 33.0 °F 29.78 in WSW 7.2 mph 12.7 mph 64 % 0.00 in
23:13 44.3 °F 32.9 °F 29.78 in WSW 5.6 mph 10.4 mph 64 % 0.00 in
23:18 44.3 °F 32.9 °F 29.78 in West 6.9 mph 10.4 mph 64 % 0.00 in
23:24 44.2 °F 32.8 °F 29.78 in SW 5.6 mph 7.0 mph 64 % 0.00 in
23:29 44.2 °F 32.8 °F 29.78 in WNW 6.2 mph 13.8 mph 64 % 0.00 in
23:34 44.1 °F 33.1 °F 29.77 in West 7.8 mph 15.0 mph 65 % 0.00 in
23:39 44.1 °F 32.7 °F 29.77 in WSW 5.0 mph 11.5 mph 64 % 0.00 in
23:44 44.1 °F 33.1 °F 29.77 in WSW 6.4 mph 10.4 mph 65 % 0.00 in
23:49 44.0 °F 33.0 °F 29.77 in WNW 9.2 mph 12.7 mph 65 % 0.00 in
23:54 44.0 °F 33.0 °F 29.78 in West 8.3 mph 19.6 mph 65 % 0.00 in
23:59 44.0 °F 33.4 °F 29.78 in West 4.8 mph 9.0 mph 66 % 0.00 in
Crab Meadow Weather
Compliments of Weather Underground - 3 mb

Script developed by  Jim McMurry - jmcmurry@mwt.net Adapted for the template by  Wim van der Kuil - Leuven-Template.eu

Recycling: A used aluminum can is recycled and back on the grocery shelf as a new can, in as little as 60 days.